Time;durP1;ratioP1;P1;durP2;ratioP2;P2;SDS_P1;SDS_P2;PMS_P1;PMS_P2;Temp;Humidity;BMP_temperature;BMP_pressure;BME280_temperature;BME280_humidity;BME280_pressure;Samples;Min_cycle;Max_cycle;Signal;HPM_P1;HPM_P2
2022/02/18 00:00:01;;;;;;;;;;;;;;;18.77;60.56;99894.63;5032348;28;1111;-32
2022/02/18 00:02:30;;;;;;;;;;;;;;;18.74;59.75;99884.25;5020810;28;1806;-32
2022/02/18 00:05:00;;;;;;;;;;;;;;;18.71;60.38;99884.53;5023678;28;1586;-33
2022/02/18 00:07:30;;;;;;;;;;;;;;;18.76;60.56;99905.50;5025552;28;1965;-32
2022/02/18 00:09:57;;;;;;;;;;;;;;;18.73;60.36;99916.53;5022942;28;1597;-32
2022/02/18 00:15:05;;;;;;;;;;;;;;;18.74;60.57;99908.34;5016898;28;3407;-32
2022/02/18 00:17:38;;;;;;;;;;;;;;;18.74;59.99;99916.38;5019900;28;1139;-32
2022/02/18 00:20:05;;;;;;;;;;;;;;;18.74;60.64;99926.22;5017712;28;1609;-32
2022/02/18 00:22:34;;;;;;;;;;;;;;;18.73;60.04;99936.09;5035423;28;1463;-32
2022/02/18 00:25:10;;;;;;;;;;;;;;;18.72;59.87;99931.75;5021858;28;1409;-32
2022/02/18 00:27:37;;;;;;;;;;;;;;;18.72;60.15;99922.88;5015718;28;1902;-33
2022/02/18 00:30:04;;;;;;;;;;;;;;;18.68;60.78;99911.63;5018963;28;1071;-32
2022/02/18 00:32:40;;;;;;;;;;;;;;;18.68;60.52;99915.16;5028925;28;1842;-32
2022/02/18 00:35:09;;;;;;;;;;;;;;;18.64;60.72;99873.63;5017982;28;1907;-32
2022/02/18 00:37:38;;;;;;;;;;;;;;;18.67;60.34;99881.31;5030072;28;2154;-32
2022/02/18 00:40:07;;;;;;;;;;;;;;;18.68;60.48;99895.53;5020483;28;1747;-32
2022/02/18 00:42:33;;;;;;;;;;;;;;;18.68;59.89;99933.91;5025290;28;1671;-32
2022/02/18 00:44:59;;;;;;;;;;;;;;;18.65;60.47;99923.47;5015783;28;1089;-32
2022/02/18 00:47:29;;;;;;;;;;;;;;;18.70;60.24;99936.41;5024935;28;1976;-32
2022/02/18 00:50:01;;;;;;;;;;;;;;;18.67;60.69;99932.19;5026665;28;1770;-32
2022/02/18 00:52:31;;;;;;;;;;;;;;;18.69;60.73;99948.13;5028235;28;1416;-32
2022/02/18 00:55:05;;;;;;;;;;;;;;;18.72;60.11;99968.38;5031359;28;1647;-32
2022/02/18 00:57:31;;;;;;;;;;;;;;;18.68;60.05;99976.75;5027648;28;1933;-32
2022/02/18 01:00:00;;;;;;;;;;;;;;;18.69;60.17;99973.06;5032062;28;1139;-31
2022/02/18 01:02:28;;;;;;;;;;;;;;;18.71;59.48;99956.00;5020899;28;1660;-32
2022/02/18 01:04:57;;;;;;;;;;;;;;;18.64;60.30;99943.25;5032350;28;1914;-32
2022/02/18 01:07:27;;;;;;;;;;;;;;;18.65;60.02;99939.56;5031755;28;1938;-32
2022/02/18 01:10:01;;;;;;;;;;;;;;;18.68;60.27;99941.94;5032013;28;1729;-32
2022/02/18 01:12:27;;;;;;;;;;;;;;;18.64;59.80;99927.16;5027975;28;1340;-32
2022/02/18 01:14:54;;;;;;;;;;;;;;;18.63;60.33;99914.75;5023484;28;1139;-32
2022/02/18 01:17:21;;;;;;;;;;;;;;;18.62;59.78;99910.41;5018360;28;1802;-31
2022/02/18 01:19:49;;;;;;;;;;;;;;;18.62;60.04;99899.72;5022513;28;1650;-32
2022/02/18 01:22:23;;;;;;;;;;;;;;;18.60;60.40;99896.34;5025597;28;1502;-33
2022/02/18 01:24:54;;;;;;;;;;;;;;;18.59;60.71;99900.00;5028057;28;1020;-31
2022/02/18 01:27:21;;;;;;;;;;;;;;;18.65;60.81;99936.88;5023711;28;2178;-32
2022/02/18 01:29:47;;;;;;;;;;;;;;;18.61;60.54;99938.19;5018242;28;1387;-32
2022/02/18 01:32:16;;;;;;;;;;;;;;;18.61;60.52;99913.25;5019838;28;1779;-32
2022/02/18 01:34:45;;;;;;;;;;;;;;;18.62;60.68;99897.03;5021705;28;1966;-32
2022/02/18 01:37:13;;;;;;;;;;;;;;;18.60;60.03;99920.44;5026129;28;1879;-32
2022/02/18 01:39:49;;;;;;;;;;;;;;;18.62;59.59;99902.38;5026529;28;1490;-33
2022/02/18 01:42:22;;;;;;;;;;;;;;;18.63;60.65;99909.41;5026859;28;1770;-32
2022/02/18 01:45:00;;;;;;;;;;;;;;;18.60;60.36;99919.56;5029369;28;1694;-31
2022/02/18 01:47:26;;;;;;;;;;;;;;;18.64;60.54;99929.84;5025029;28;1980;-31
2022/02/18 01:49:58;;;;;;;;;;;;;;;18.63;60.10;99920.13;5024026;28;1802;-32
2022/02/18 01:52:29;;;;;;;;;;;;;;;18.61;60.46;99923.94;5023285;28;1586;-31
2022/02/18 01:54:59;;;;;;;;;;;;;;;18.60;60.43;99914.22;5025286;28;1652;-32
2022/02/18 01:57:32;;;;;;;;;;;;;;;18.59;60.33;99921.41;5026064;28;1837;-32
2022/02/18 02:00:02;;;;;;;;;;;;;;;18.62;60.26;99923.81;5020667;28;1063;-32
2022/02/18 02:02:32;;;;;;;;;;;;;;;18.64;60.46;99931.66;5029177;28;1623;-31
2022/02/18 02:05:01;;;;;;;;;;;;;;;18.69;60.50;99929.38;5022714;28;1961;-32
2022/02/18 02:07:30;;;;;;;;;;;;;;;18.64;60.51;99931.66;5022614;28;1898;-32
2022/02/18 02:09:58;;;;;;;;;;;;;;;18.64;60.29;99975.38;5016228;28;1928;-32
2022/02/18 02:12:27;;;;;;;;;;;;;;;18.64;60.70;99969.16;5026717;28;1509;-32
2022/02/18 02:14:53;;;;;;;;;;;;;;;18.64;60.31;99970.00;5034594;28;1124;-32
2022/02/18 02:17:21;;;;;;;;;;;;;;;18.60;60.57;99968.63;5018576;28;1811;-32
2022/02/18 02:19:50;;;;;;;;;;;;;;;18.63;60.06;99987.06;5023361;28;1818;-31
2022/02/18 02:22:23;;;;;;;;;;;;;;;18.64;60.03;99999.47;5013940;28;1798;-33
2022/02/18 02:24:51;;;;;;;;;;;;;;;18.63;60.67;99995.09;5027166;28;1021;-32
2022/02/18 02:27:18;;;;;;;;;;;;;;;18.62;60.38;99988.06;5030357;28;1914;-32
2022/02/18 02:29:49;;;;;;;;;;;;;;;18.62;60.68;99984.53;5019328;28;1915;-32
2022/02/18 02:32:19;;;;;;;;;;;;;;;18.62;60.48;99984.53;5031826;28;1947;-32
2022/02/18 02:34:48;;;;;;;;;;;;;;;18.64;60.71;100018.22;5030534;28;1744;-32
2022/02/18 02:37:18;;;;;;;;;;;;;;;18.63;60.58;100007.66;5032880;28;1596;-32
2022/02/18 02:39:52;;;;;;;;;;;;;;;18.62;60.43;100003.28;5024031;28;1672;-32
2022/02/18 02:42:21;;;;;;;;;;;;;;;18.61;60.60;100018.50;5025653;28;1672;-31
2022/02/18 02:44:49;;;;;;;;;;;;;;;18.60;60.64;100000.78;5033592;28;1063;-32
2022/02/18 02:47:18;;;;;;;;;;;;;;;18.60;60.33;99995.41;5030264;28;1965;-32
2022/02/18 02:49:48;;;;;;;;;;;;;;;18.57;60.59;100006.41;5019723;28;1751;-32
2022/02/18 02:52:18;;;;;;;;;;;;;;;18.58;60.01;100020.63;5022085;28;1612;-31
2022/02/18 02:54:47;;;;;;;;;;;;;;;18.60;60.38;100038.25;5024443;28;1780;-31
2022/02/18 02:57:16;;;;;;;;;;;;;;;18.61;60.48;100037.25;5019045;28;1715;-32
2022/02/18 02:59:42;;;;;;;;;;;;;;;18.58;60.41;100045.59;5033543;28;1275;-32
2022/02/18 03:02:13;;;;;;;;;;;;;;;18.60;60.02;100048.09;5139669;22;3528;-32
2022/02/18 03:04:43;;;;;;;;;;;;;;;18.62;60.30;100063.06;5005141;28;1618;-32
2022/02/18 03:07:10;;;;;;;;;;;;;;;18.62;59.87;100068.41;4999886;28;1911;-32
2022/02/18 03:09:39;;;;;;;;;;;;;;;18.61;60.15;100065.88;5010854;28;1587;-32
2022/02/18 03:12:09;;;;;;;;;;;;;;;18.56;59.65;100047.59;5001924;28;1845;-32
2022/02/18 03:14:37;;;;;;;;;;;;;;;18.58;60.19;100042.94;5002578;28;1085;-31
2022/02/18 03:17:07;;;;;;;;;;;;;;;18.58;60.28;100034.03;5001260;28;1230;-32
2022/02/18 03:19:37;;;;;;;;;;;;;;;18.59;60.00;100052.63;5009513;28;1186;-32
2022/02/18 03:22:06;;;;;;;;;;;;;;;18.59;60.33;100049.94;5013549;28;1012;-32
2022/02/18 03:24:36;;;;;;;;;;;;;;;18.57;59.72;100076.03;5015058;28;1820;-32
2022/02/18 03:27:04;;;;;;;;;;;;;;;18.57;60.69;100069.84;5002765;28;1914;-32
2022/02/18 03:29:33;;;;;;;;;;;;;;;18.56;60.65;100087.75;5006916;28;1813;-32
2022/02/18 03:32:00;;;;;;;;;;;;;;;18.56;60.40;100087.75;5011298;28;1667;-32
2022/02/18 03:34:34;;;;;;;;;;;;;;;18.53;60.13;100100.59;5011187;28;1344;-31
2022/02/18 03:37:02;;;;;;;;;;;;;;;18.56;60.34;100109.19;5019248;28;1631;-32
2022/02/18 03:39:28;;;;;;;;;;;;;;;18.53;60.80;100117.50;5005804;28;1238;-31
2022/02/18 03:41:57;;;;;;;;;;;;;;;18.58;60.15;100115.22;5008036;28;1598;-32
2022/02/18 03:44:26;;;;;;;;;;;;;;;18.56;60.54;100119.03;4997851;28;1079;-31
2022/02/18 03:46:56;;;;;;;;;;;;;;;18.56;60.28;100117.22;5011076;28;1674;-32
2022/02/18 03:49:26;;;;;;;;;;;;;;;18.55;60.59;100114.66;5005895;28;1878;-32
2022/02/18 03:51:56;;;;;;;;;;;;;;;18.52;60.13;100110.44;5016258;28;1651;-32
2022/02/18 03:54:26;;;;;;;;;;;;;;;18.58;60.17;100131.28;5000351;28;1797;-31
2022/02/18 03:56:56;;;;;;;;;;;;;;;18.58;60.65;100141.13;5011436;28;1644;-32
2022/02/18 03:59:23;;;;;;;;;;;;;;;18.53;59.81;100106.78;5005501;28;1430;-32
2022/02/18 04:01:49;;;;;;;;;;;;;;;18.55;60.49;100120.88;5004411;28;1946;-32
2022/02/18 04:04:17;;;;;;;;;;;;;;;18.53;60.30;100114.81;5010685;28;1713;-32
2022/02/18 04:06:46;;;;;;;;;;;;;;;18.53;60.34;100117.50;5001506;28;1496;-31
2022/02/18 04:09:16;;;;;;;;;;;;;;;18.55;60.33;100133.41;5004869;28;2027;-32
2022/02/18 04:11:46;;;;;;;;;;;;;;;18.58;59.88;100147.34;5016179;28;1599;-32
2022/02/18 04:14:13;;;;;;;;;;;;;;;18.56;60.15;100143.13;5015135;28;1439;-31
2022/02/18 04:16:40;;;;;;;;;;;;;;;18.55;60.13;100141.44;5013698;28;1810;-31
2022/02/18 04:19:07;;;;;;;;;;;;;;;18.53;60.11;100122.84;5008500;28;1237;-31
2022/02/18 04:21:34;;;;;;;;;;;;;;;18.53;60.40;100128.19;5002803;28;1143;-31
2022/02/18 04:24:04;;;;;;;;;;;;;;;18.52;60.12;100126.50;5005228;28;1581;-32
2022/02/18 04:26:36;;;;;;;;;;;;;;;18.53;59.94;100135.41;4999349;28;1066;-32
2022/02/18 04:29:02;;;;;;;;;;;;;;;18.55;59.93;100131.56;5024992;28;1910;-32
2022/02/18 04:31:31;;;;;;;;;;;;;;;18.52;60.42;100118.47;5009133;28;1780;-32
2022/02/18 04:33:59;;;;;;;;;;;;;;;18.52;60.10;100121.16;4998728;28;1405;-31
2022/02/18 04:36:28;;;;;;;;;;;;;;;18.51;60.47;100119.47;5013499;28;2012;-32
2022/02/18 04:38:54;;;;;;;;;;;;;;;18.52;59.96;100149.75;5005411;28;1615;-31
2022/02/18 04:41:29;;;;;;;;;;;;;;;18.53;59.84;100146.94;5007217;28;1395;-32
2022/02/18 04:43:59;;;;;;;;;;;;;;;18.55;60.07;100153.00;4999123;28;1541;-31
2022/02/18 04:46:29;;;;;;;;;;;;;;;18.56;60.20;100159.19;5008851;28;1809;-31
2022/02/18 04:48:58;;;;;;;;;;;;;;;18.52;60.37;100169.34;5008531;28;1977;-31
2022/02/18 04:51:28;;;;;;;;;;;;;;;18.53;60.13;100154.97;5009501;28;1462;-31
2022/02/18 04:53:55;;;;;;;;;;;;;;;18.52;60.19;100185.41;5010659;28;1493;-32
2022/02/18 04:56:24;;;;;;;;;;;;;;;18.52;60.13;100179.22;5008086;28;1775;-32
2022/02/18 04:58:52;;;;;;;;;;;;;;;18.50;60.13;100190.06;5029788;28;1632;-31
2022/02/18 05:01:21;;;;;;;;;;;;;;;18.47;60.05;100185.84;5012347;28;1974;-31
2022/02/18 05:03:50;;;;;;;;;;;;;;;18.49;59.97;100204.47;5006779;28;1461;-32
2022/02/18 05:06:17;;;;;;;;;;;;;;;18.49;60.05;100207.97;5020813;28;1506;-32
2022/02/18 05:08:44;;;;;;;;;;;;;;;18.50;60.12;100219.50;5004165;28;1906;-32
2022/02/18 05:11:11;;;;;;;;;;;;;;;18.52;60.17;100220.22;5014346;28;1765;-32
2022/02/18 05:13:38;;;;;;;;;;;;;;;18.55;60.16;100233.31;5017177;28;1308;-32
2022/02/18 05:16:06;;;;;;;;;;;;;;;18.53;59.86;100234.47;5021043;28;1795;-32
2022/02/18 05:18:38;;;;;;;;;;;;;;;18.53;59.89;100247.84;5003292;28;1798;-32
2022/02/18 05:21:05;;;;;;;;;;;;;;;18.57;59.72;100244.72;5025211;28;1521;-32
2022/02/18 05:23:34;;;;;;;;;;;;;;;18.68;59.97;100255.28;5023182;28;2047;-35
2022/02/18 05:26:03;;;;;;;;;;;;;;;18.77;58.83;100263.44;5012027;28;1542;-32
2022/02/18 05:28:30;;;;;;;;;;;;;;;18.88;59.08;100261.44;5011538;28;1969;-32
2022/02/18 05:30:57;;;;;;;;;;;;;;;19.09;59.39;100284.47;5008325;28;1525;-32
2022/02/18 05:33:26;;;;;;;;;;;;;;;19.17;58.43;100297.16;5011913;28;1549;-32
2022/02/18 05:35:58;;;;;;;;;;;;;;;19.18;59.62;100294.31;5008549;28;1634;-32
2022/02/18 05:38:26;;;;;;;;;;;;;;;19.35;58.44;100295.34;5017491;28;1619;-32
2022/02/18 05:41:01;;;;;;;;;;;;;;;19.41;58.83;100318.88;5013374;28;1400;-32
2022/02/18 05:43:32;;;;;;;;;;;;;;;19.59;58.63;100326.13;5014986;28;1328;-32
2022/02/18 05:45:58;;;;;;;;;;;;;;;19.59;58.10;100312.72;5014005;28;1660;-32
2022/02/18 05:48:25;;;;;;;;;;;;;;;19.64;58.97;100332.75;5006613;28;1906;-32
2022/02/18 05:50:58;;;;;;;;;;;;;;;19.67;57.60;100327.06;5006956;28;1779;-32
2022/02/18 05:53:27;;;;;;;;;;;;;;;19.82;58.45;100340.84;5024947;28;1570;-32
2022/02/18 05:55:57;;;;;;;;;;;;;;;20.00;56.82;100335.50;5011731;28;1915;-32
2022/02/18 05:58:23;;;;;;;;;;;;;;;19.94;57.12;100362.94;5009086;28;1141;-32
2022/02/18 06:00:53;;;;;;;;;;;;;;;19.99;57.25;100335.66;4998105;28;1682;-32
2022/02/18 06:03:22;;;;;;;;;;;;;;;19.94;57.80;100348.69;5008446;28;1538;-32
2022/02/18 06:05:49;;;;;;;;;;;;;;;19.83;58.18;100380.09;5008206;28;1809;-33
2022/02/18 06:08:17;;;;;;;;;;;;;;;19.87;58.46;100367.22;5013818;28;1967;-32
2022/02/18 06:10:46;;;;;;;;;;;;;;;19.95;58.35;100398.69;5007338;28;1408;-32
2022/02/18 06:13:15;;;;;;;;;;;;;;;19.86;58.28;100387.84;5008253;28;1265;-33
2022/02/18 06:15:50;;;;;;;;;;;;;;;19.83;58.71;100404.25;5006857;28;1366;-32
2022/02/18 06:18:17;;;;;;;;;;;;;;;19.83;58.25;100403.41;5009093;28;1626;-32
2022/02/18 06:20:46;;;;;;;;;;;;;;;19.81;58.67;100414.28;5011710;28;1564;-32
2022/02/18 06:23:13;;;;;;;;;;;;;;;19.79;58.52;100418.94;5015265;28;1498;-34
2022/02/18 06:25:48;;;;;;;;;;;;;;;19.85;58.92;100436.28;5006876;28;1477;-32
2022/02/18 06:28:18;;;;;;;;;;;;;;;19.84;58.54;100430.09;5002157;28;1985;-32
2022/02/18 06:30:48;;;;;;;;;;;;;;;19.84;57.90;100443.50;5004455;28;1493;-32
2022/02/18 06:33:18;;;;;;;;;;;;;;;19.95;59.29;100452.34;5008422;28;1308;-32
2022/02/18 06:35:47;;;;;;;;;;;;;;;19.95;58.06;100453.19;5006710;28;1423;-32
2022/02/18 06:38:16;;;;;;;;;;;;;;;19.97;59.21;100450.34;5007314;28;1080;-32
2022/02/18 06:40:52;;;;;;;;;;;;;;;19.98;59.03;100446.69;5006126;28;1214;-32
2022/02/18 06:43:21;;;;;;;;;;;;;;;19.99;58.01;100464.47;5003684;28;1752;-32
2022/02/18 06:45:50;;;;;;;;;;;;;;;20.01;58.14;100467.84;5011478;28;1765;-32
2022/02/18 06:48:17;;;;;;;;;;;;;;;19.91;58.66;100461.69;5013481;28;1950;-32
2022/02/18 06:50:47;;;;;;;;;;;;;;;19.81;57.85;100465.25;5012492;28;1687;-32
2022/02/18 06:53:17;;;;;;;;;;;;;;;19.75;58.17;100476.59;5025082;28;1716;-32
2022/02/18 06:55:52;;;;;;;;;;;;;;;19.74;58.68;100477.59;5014069;28;1267;-32
2022/02/18 06:58:20;;;;;;;;;;;;;;;19.87;58.19;100471.88;5011821;28;1324;-32
2022/02/18 07:00:51;;;;;;;;;;;;;;;19.86;58.22;100462.16;5000158;28;1670;-32
2022/02/18 07:03:19;;;;;;;;;;;;;;;19.91;58.43;100467.06;5021272;28;1527;-32
2022/02/18 07:05:48;;;;;;;;;;;;;;;19.87;58.55;100485.28;5022435;28;1552;-32
2022/02/18 07:08:16;;;;;;;;;;;;;;;19.90;59.46;100476.13;5018155;28;1906;-33
2022/02/18 07:10:42;;;;;;;;;;;;;;;19.82;59.03;100464.28;5014517;28;1236;-32
2022/02/18 07:13:15;;;;;;;;;;;;;;;19.84;59.00;100483.75;5017680;28;1728;-32
2022/02/18 07:15:48;;;;;;;;;;;;;;;19.84;58.65;100494.50;5013635;28;1286;-32
2022/02/18 07:18:16;;;;;;;;;;;;;;;19.86;58.99;100475.56;5016747;28;1532;-32
2022/02/18 07:20:43;;;;;;;;;;;;;;;19.85;59.78;100466.66;5010614;28;1372;-32
2022/02/18 07:23:12;;;;;;;;;;;;;;;19.81;60.17;100478.66;5015307;28;1756;-32
2022/02/18 07:25:43;;;;;;;;;;;;;;;19.80;60.04;100482.38;5014256;28;1655;-32
2022/02/18 07:28:21;;;;;;;;;;;;;;;19.83;59.22;100483.91;5003750;28;1915;-32
2022/02/18 07:30:51;;;;;;;;;;;;;;;19.80;59.84;100466.28;5020118;28;1491;-32
2022/02/18 07:33:19;;;;;;;;;;;;;;;19.85;60.45;100490.81;5006485;28;1491;-32
2022/02/18 07:35:47;;;;;;;;;;;;;;;19.89;60.06;100501.25;5017031;28;1396;-33
2022/02/18 07:38:17;;;;;;;;;;;;;;;19.83;60.54;100503.53;5024686;28;1419;-32
2022/02/18 07:40:45;;;;;;;;;;;;;;;19.84;59.42;100507.06;5013699;28;1288;-32
2022/02/18 07:43:18;;;;;;;;;;;;;;;19.86;59.66;100502.41;5013399;28;1840;-32
2022/02/18 07:45:48;;;;;;;;;;;;;;;19.89;60.39;100495.88;5015466;28;1439;-33
2022/02/18 07:48:16;;;;;;;;;;;;;;;19.90;60.76;100514.53;5011421;28;1910;-33
2022/02/18 07:50:43;;;;;;;;;;;;;;;19.89;60.68;100517.34;5016153;28;1378;-34
2022/02/18 07:53:13;;;;;;;;;;;;;;;19.82;60.15;100501.84;5013465;28;1578;-33
2022/02/18 07:55:39;;;;;;;;;;;;;;;19.81;60.82;100521.59;5016606;28;1186;-32
2022/02/18 07:58:08;;;;;;;;;;;;;;;19.86;61.64;100524.72;5024477;28;1601;-32
2022/02/18 08:00:38;;;;;;;;;;;;;;;19.83;60.96;100527.66;5021221;28;1491;-33
2022/02/18 08:03:07;;;;;;;;;;;;;;;19.78;60.74;100519.22;5019496;28;1501;-33
2022/02/18 08:05:33;;;;;;;;;;;;;;;19.77;60.91;100508.63;5010702;28;1876;-33
2022/02/18 08:08:03;;;;;;;;;;;;;;;19.76;60.81;100505.13;5010210;28;1696;-33
2022/02/18 08:10:30;;;;;;;;;;;;;;;19.76;61.55;100502.44;5005021;28;1906;-33
2022/02/18 08:12:59;;;;;;;;;;;;;;;19.80;61.51;100514.56;5009756;28;1626;-33
2022/02/18 08:15:29;;;;;;;;;;;;;;;19.84;61.57;100515.97;5013627;28;1491;-33
2022/02/18 08:17:59;;;;;;;;;;;;;;;19.91;60.97;100516.19;5012155;28;1584;-33
2022/02/18 08:20:29;;;;;;;;;;;;;;;19.86;60.98;100519.34;5004029;28;1324;-33
2022/02/18 08:22:58;;;;;;;;;;;;;;;19.86;60.63;100530.06;5012545;28;1749;-32
2022/02/18 08:25:33;;;;;;;;;;;;;;;19.86;61.35;100530.06;5009927;28;1509;-33
2022/02/18 08:28:00;;;;;;;;;;;;;;;19.83;61.91;100519.63;5002362;28;1471;-32
2022/02/18 08:30:29;;;;;;;;;;;;;;;19.87;61.28;100528.22;5018545;28;1968;-32
2022/02/18 08:33:00;;;;;;;;;;;;;;;19.94;61.19;100531.19;5006463;28;1317;-32
2022/02/18 08:35:29;;;;;;;;;;;;;;;19.96;61.69;100539.94;5005963;28;1598;-33
2022/02/18 08:37:57;;;;;;;;;;;;;;;20.01;61.67;100533.09;5009247;28;1344;-32
2022/02/18 08:40:24;;;;;;;;;;;;;;;20.01;60.75;100527.75;5005270;28;1596;-33
2022/02/18 08:42:50;;;;;;;;;;;;;;;20.05;60.54;100523.78;5009032;28;1630;-34
2022/02/18 08:45:19;;;;;;;;;;;;;;;20.05;61.41;100533.66;5011142;28;1040;-33
2022/02/18 08:47:46;;;;;;;;;;;;;;;20.05;60.47;100539.03;5014778;28;1799;-32
2022/02/18 08:50:16;;;;;;;;;;;;;;;20.07;60.70;100542.41;5013059;28;1910;-32
2022/02/18 08:52:51;;;;;;;;;;;;;;;19.98;61.97;100527.22;5015208;28;1459;-32
2022/02/18 08:55:26;;;;;;;;;;;;;;;19.97;60.83;100544.28;5012340;28;1623;-32
2022/02/18 08:57:52;;;;;;;;;;;;;;;20.00;61.75;100544.00;5012236;28;1426;-33
2022/02/18 09:00:19;;;;;;;;;;;;;;;19.97;61.18;100538.94;5010147;28;1471;-33
2022/02/18 09:02:46;;;;;;;;;;;;;;;19.95;61.60;100549.81;5010601;28;1616;-33
2022/02/18 09:05:17;;;;;;;;;;;;;;;19.92;62.14;100560.84;5012347;28;1423;-33
2022/02/18 09:07:46;;;;;;;;;;;;;;;19.91;61.81;100553.78;5023427;28;1475;-33
2022/02/18 09:10:13;;;;;;;;;;;;;;;19.99;61.07;100571.84;5015010;28;1902;-32
2022/02/18 09:12:42;;;;;;;;;;;;;;;20.07;60.60;100558.50;5003216;28;1697;-32
2022/02/18 09:15:13;;;;;;;;;;;;;;;20.12;61.66;100558.94;5002368;28;1765;-32
2022/02/18 09:17:43;;;;;;;;;;;;;;;20.19;60.93;100553.81;5011227;28;1344;-33
2022/02/18 09:20:12;;;;;;;;;;;;;;;20.23;60.86;100558.75;5014350;28;1847;-32
2022/02/18 09:22:40;;;;;;;;;;;;;;;20.09;62.33;100545.78;5013543;28;1891;-32
2022/02/18 09:25:06;;;;;;;;;;;;;;;20.08;62.74;100560.22;5015133;28;1419;-33
2022/02/18 09:27:33;;;;;;;;;;;;;;;20.08;62.92;100544.13;5015189;28;1169;-33
2022/02/18 09:30:10;;;;;;;;;;;;;;;20.15;62.64;100564.00;5016526;28;1983;-33
2022/02/18 09:32:43;;;;;;;;;;;;;;;20.25;61.46;100562.13;5008225;28;1757;-33
2022/02/18 09:35:12;;;;;;;;;;;;;;;20.17;61.58;100561.16;5021159;28;1733;-32
2022/02/18 09:37:50;;;;;;;;;;;;;;;20.20;62.40;100572.47;5007298;28;1663;-32
2022/02/18 09:40:19;;;;;;;;;;;;;;;20.17;61.89;100570.06;4998299;28;1929;-32
2022/02/18 09:42:48;;;;;;;;;;;;;;;20.20;63.02;100563.56;5012386;28;1939;-33
2022/02/18 09:45:20;;;;;;;;;;;;;;;20.15;62.47;100563.16;5019496;28;1558;-35
2022/02/18 09:47:48;;;;;;;;;;;;;;;20.00;62.99;100557.44;5013340;28;1363;-37
2022/02/18 09:50:16;;;;;;;;;;;;;;;19.92;62.15;100562.69;5007069;28;1906;-34
2022/02/18 09:52:46;;;;;;;;;;;;;;;19.95;62.02;100565.91;5007616;28;1844;-34
2022/02/18 09:55:14;;;;;;;;;;;;;;;19.93;63.37;100572.41;5001401;28;1572;-33
2022/02/18 09:57:43;;;;;;;;;;;;;;;20.03;63.35;100554.44;4998363;28;1585;-33
2022/02/18 10:00:11;;;;;;;;;;;;;;;19.99;62.85;100550.38;4995294;28;1456;-33
2022/02/18 10:02:41;;;;;;;;;;;;;;;20.05;61.89;100544.41;5012940;28;1461;-33
2022/02/18 10:05:10;;;;;;;;;;;;;;;20.01;61.36;100548.38;5007200;28;1746;-33
2022/02/18 10:07:57;;;;;;;;;;;;;;;19.93;61.71;100542.91;4998852;28;2369;-33
2022/02/18 10:10:29;;;;;;;;;;;;;;;19.93;61.80;100542.91;4998698;28;2017;-33
2022/02/18 10:12:58;;;;;;;;;;;;;;;19.91;62.66;100550.25;5005115;28;1725;-33
2022/02/18 10:15:28;;;;;;;;;;;;;;;19.91;61.58;100550.25;5012555;28;1851;-34
2022/02/18 10:18:09;;;;;;;;;;;;;;;19.77;59.06;100530.94;5013912;28;1926;-34
2022/02/18 10:20:38;;;;;;;;;;;;;;;19.58;58.42;100553.28;5003261;28;1013;-34
2022/02/18 10:23:07;;;;;;;;;;;;;;;19.43;56.11;100539.47;4995411;28;1832;-34
2022/02/18 10:25:38;;;;;;;;;;;;;;;19.34;54.60;100529.63;4999325;28;1677;-34
2022/02/18 10:28:06;;;;;;;;;;;;;;;19.29;54.34;100539.91;5011818;28;1689;-33
2022/02/18 10:30:33;;;;;;;;;;;;;;;19.22;52.36;100534.28;4995240;28;1977;-34
2022/02/18 10:33:10;;;;;;;;;;;;;;;19.16;51.98;100545.59;5007158;28;1645;-34
2022/02/18 10:35:37;;;;;;;;;;;;;;;19.17;51.41;100530.34;5011249;28;1531;-36
2022/02/18 10:38:27;;;;;;;;;;;;;;;19.24;50.83;100544.88;5008101;28;1000;-33
2022/02/18 10:41:00;;;;;;;;;;;;;;;19.13;50.27;100536.97;4994053;28;1386;-33
2022/02/18 10:43:37;;;;;;;;;;;;;;;19.15;48.66;100546.56;5006265;28;1089;-34
2022/02/18 10:46:06;;;;;;;;;;;;;;;19.24;47.65;100534.16;5004179;28;1616;-33
2022/02/18 10:48:35;;;;;;;;;;;;;;;19.24;47.27;100556.44;5011772;28;1780;-34
2022/02/18 10:51:10;;;;;;;;;;;;;;;19.25;46.66;100543.88;5011112;28;1977;-34
2022/02/18 10:53:38;;;;;;;;;;;;;;;19.25;47.27;100568.00;5010587;28;1483;-33
2022/02/18 10:56:11;;;;;;;;;;;;;;;19.51;47.15;100556.69;4994034;28;2077;-33
2022/02/18 10:58:41;;;;;;;;;;;;;;;19.61;47.12;100552.97;5011713;28;1677;-33
2022/02/18 11:01:13;;;;;;;;;;;;;;;20.04;48.03;100537.34;4995545;28;1438;-34
2022/02/18 11:03:43;;;;;;;;;;;;;;;20.38;48.03;100542.13;5002918;28;1634;-33
2022/02/18 11:06:14;;;;;;;;;;;;;;;20.51;47.92;100550.66;4998646;28;1767;-33
2022/02/18 11:08:55;;;;;;;;;;;;;;;20.59;47.76;100556.19;5016018;28;2051;-33
2022/02/18 11:11:24;;;;;;;;;;;;;;;20.76;49.03;100553.66;5002223;28;1902;-33
2022/02/18 11:13:52;;;;;;;;;;;;;;;20.84;48.65;100556.44;4999722;28;1087;-33
2022/02/18 11:16:22;;;;;;;;;;;;;;;20.82;49.75;100556.56;5010446;28;1839;-34
2022/02/18 11:18:57;;;;;;;;;;;;;;;20.76;51.10;100550.97;5002028;28;1770;-33
2022/02/18 11:21:23;;;;;;;;;;;;;;;20.75;51.22;100550.13;5006449;28;1503;-33
2022/02/18 11:23:50;;;;;;;;;;;;;;;20.73;51.02;100559.31;5011515;28;1813;-33
2022/02/18 11:26:18;;;;;;;;;;;;;;;20.69;52.03;100568.69;5009510;28;1581;-33
2022/02/18 11:28:52;;;;;;;;;;;;;;;20.74;51.83;100578.00;5000590;28;1387;-33
2022/02/18 11:31:29;;;;;;;;;;;;;;;20.84;51.95;100567.19;5010287;28;1975;-33
2022/02/18 11:34:32;;;;;;;;;;;;;;;20.89;50.89;100559.50;5008391;28;1760;-34
2022/02/18 11:37:23;;;;;;;;;;;;;;;20.76;51.36;100569.78;5004072;28;1373;-34
2022/02/18 11:39:59;;;;;;;;;;;;;;;20.65;53.04;100562.75;5013118;28;1743;-34
2022/02/18 11:42:33;;;;;;;;;;;;;;;20.58;52.58;100578.63;5007393;28;1591;-34
2022/02/18 11:45:16;;;;;;;;;;;;;;;20.46;53.24;100577.97;5013429;28;1012;-34
2022/02/18 11:47:51;;;;;;;;;;;;;;;20.46;53.32;100574.47;5011461;28;1438;-34
2022/02/18 11:50:18;;;;;;;;;;;;;;;20.44;54.13;100568.38;4998234;28;1902;-34
2022/02/18 11:52:49;;;;;;;;;;;;;;;20.35;53.16;100564.78;5011766;28;1757;-34
2022/02/18 11:55:42;;;;;;;;;;;;;;;20.32;53.33;100570.44;5007410;28;1465;-35
2022/02/18 11:58:13;;;;;;;;;;;;;;;20.32;54.42;100559.69;5003430;28;1971;-34
2022/02/18 12:00:42;;;;;;;;;;;;;;;20.30;53.95;100564.38;5014457;28;1557;-35
2022/02/18 12:03:15;;;;;;;;;;;;;;;20.26;53.73;100568.34;4974129;28;1401;-34
2022/02/18 12:06:02;;;;;;;;;;;;;;;20.22;54.00;100573.16;4965417;28;1930;-34
2022/02/18 12:08:31;;;;;;;;;;;;;;;20.16;55.33;100568.38;4964926;28;1758;-34
2022/02/18 12:11:01;;;;;;;;;;;;;;;20.13;53.98;100573.19;4964778;28;1969;-34
2022/02/18 12:13:27;;;;;;;;;;;;;;;20.14;53.58;100581.09;4969850;28;1717;-35
2022/02/18 12:16:01;;;;;;;;;;;;;;;20.18;53.86;100576.28;4974664;28;1646;-34
2022/02/18 12:18:31;;;;;;;;;;;;;;;20.17;53.13;100570.06;4959352;28;1766;-35
2022/02/18 12:21:11;;;;;;;;;;;;;;;20.15;53.63;100584.63;4977300;28;1156;-34
2022/02/18 12:23:41;;;;;;;;;;;;;;;20.18;54.03;100577.13;4976647;28;1557;-34
2022/02/18 12:26:27;;;;;;;;;;;;;;;20.21;53.84;100573.28;4960495;28;1833;-35
2022/02/18 12:29:16;;;;;;;;;;;;;;;20.18;54.10;100577.13;4963778;28;1653;-34
2022/02/18 12:32:00;;;;;;;;;;;;;;;20.23;54.16;100590.09;4968059;28;1902;-35
2022/02/18 12:34:28;;;;;;;;;;;;;;;20.17;53.70;100591.53;4969767;28;1669;-35
2022/02/18 12:36:55;;;;;;;;;;;;;;;20.15;54.33;100569.34;4967952;28;1495;-34
2022/02/18 12:39:38;;;;;;;;;;;;;;;20.12;54.67;100593.00;4968441;28;1528;-35
2022/02/18 12:42:11;;;;;;;;;;;;;;;20.07;53.80;100601.47;4968305;28;1425;-34
2022/02/18 12:44:47;;;;;;;;;;;;;;;20.06;54.70;100611.38;4969649;28;1691;-34
2022/02/18 12:47:19;;;;;;;;;;;;;;;20.00;55.72;100605.75;4966527;28;1950;-34
2022/02/18 12:49:46;;;;;;;;;;;;;;;20.00;55.08;100595.00;4969897;28;1910;-34
2022/02/18 12:52:16;;;;;;;;;;;;;;;20.12;54.11;100599.19;4971274;28;1575;-34
2022/02/18 12:55:06;;;;;;;;;;;;;;;20.20;55.01;100604.69;4968025;28;1846;-34
2022/02/18 12:57:34;;;;;;;;;;;;;;;20.15;55.66;100615.00;4968322;28;1462;-34
2022/02/18 13:00:07;;;;;;;;;;;;;;;20.18;55.60;100603.97;4975932;28;1630;-34
2022/02/18 13:02:47;;;;;;;;;;;;;;;20.19;55.56;100615.56;4994664;28;1383;-34
2022/02/18 13:05:15;;;;;;;;;;;;;;;20.19;56.15;100610.19;5008314;28;1635;-34